sensor_id;sensor_type;location;lat;lon;timestamp;temperature;humidity
31661;DHT22;18267;52.234;7.444;2023-05-10T00:01:07;16.50;99.90
31661;DHT22;18267;52.234;7.444;2023-05-10T00:03:33;16.50;99.90
31661;DHT22;18267;52.234;7.444;2023-05-10T00:05:58;16.50;99.90
31661;DHT22;18267;52.234;7.444;2023-05-10T00:08:24;16.40;99.90
31661;DHT22;18267;52.234;7.444;2023-05-10T00:10:49;16.40;99.90
31661;DHT22;18267;52.234;7.444;2023-05-10T00:13:15;16.40;99.90
31661;DHT22;18267;52.234;7.444;2023-05-10T00:15:40;16.30;99.90
31661;DHT22;18267;52.234;7.444;2023-05-10T00:18:06;16.30;99.90
31661;DHT22;18267;52.234;7.444;2023-05-10T00:20:31;16.30;99.90
31661;DHT22;18267;52.234;7.444;2023-05-10T00:22:57;16.10;99.90
31661;DHT22;18267;52.234;7.444;2023-05-10T00:25:23;16.10;99.90
31661;DHT22;18267;52.234;7.444;2023-05-10T00:27:48;16.10;99.90
31661;DHT22;18267;52.234;7.444;2023-05-10T00:30:15;16.10;99.90
31661;DHT22;18267;52.234;7.444;2023-05-10T00:32:40;16.10;99.90
31661;DHT22;18267;52.234;7.444;2023-05-10T00:35:06;16.10;99.90
31661;DHT22;18267;52.234;7.444;2023-05-10T00:37:31;16.20;99.90
31661;DHT22;18267;52.234;7.444;2023-05-10T00:39:57;16.20;99.90
31661;DHT22;18267;52.234;7.444;2023-05-10T00:42:23;16.20;99.90
31661;DHT22;18267;52.234;7.444;2023-05-10T00:44:48;16.20;99.90
31661;DHT22;18267;52.234;7.444;2023-05-10T00:47:14;16.20;99.90
31661;DHT22;18267;52.234;7.444;2023-05-10T00:49:40;16.20;99.90
31661;DHT22;18267;52.234;7.444;2023-05-10T00:52:06;16.30;99.90
31661;DHT22;18267;52.234;7.444;2023-05-10T00:54:32;16.20;99.90
31661;DHT22;18267;52.234;7.444;2023-05-10T00:56:58;16.30;99.90
31661;DHT22;18267;52.234;7.444;2023-05-10T00:59:24;16.30;99.90
31661;DHT22;18267;52.234;7.444;2023-05-10T01:01:49;16.20;99.90
31661;DHT22;18267;52.234;7.444;2023-05-10T01:04:16;16.20;99.90
31661;DHT22;18267;52.234;7.444;2023-05-10T01:06:43;16.20;99.90
31661;DHT22;18267;52.234;7.444;2023-05-10T01:09:09;16.10;99.90
31661;DHT22;18267;52.234;7.444;2023-05-10T01:11:36;15.90;99.90
31661;DHT22;18267;52.234;7.444;2023-05-10T01:14:02;15.90;99.90
31661;DHT22;18267;52.234;7.444;2023-05-10T01:16:31;16.00;99.90
31661;DHT22;18267;52.234;7.444;2023-05-10T01:18:57;16.00;99.90
31661;DHT22;18267;52.234;7.444;2023-05-10T01:21:27;16.10;99.90
31661;DHT22;18267;52.234;7.444;2023-05-10T01:27:19;16.10;99.90
31661;DHT22;18267;52.234;7.444;2023-05-10T01:35:19;15.40;99.90
31661;DHT22;18267;52.234;7.444;2023-05-10T01:38:19;15.30;99.90
31661;DHT22;18267;52.234;7.444;2023-05-10T01:41:17;15.30;99.90
31661;DHT22;18267;52.234;7.444;2023-05-10T01:46:56;15.00;99.90
31661;DHT22;18267;52.234;7.444;2023-05-10T01:49:25;15.00;99.90
31661;DHT22;18267;52.234;7.444;2023-05-10T01:51:54;15.10;99.90
31661;DHT22;18267;52.234;7.444;2023-05-10T01:54:23;15.00;99.90
31661;DHT22;18267;52.234;7.444;2023-05-10T01:56:55;14.80;99.90
31661;DHT22;18267;52.234;7.444;2023-05-10T01:59:22;14.70;99.90
31661;DHT22;18267;52.234;7.444;2023-05-10T02:01:50;14.70;99.90
31661;DHT22;18267;52.234;7.444;2023-05-10T02:04:17;14.60;99.90
31661;DHT22;18267;52.234;7.444;2023-05-10T02:06:45;14.60;99.90
31661;DHT22;18267;52.234;7.444;2023-05-10T02:09:11;14.50;99.90
31661;DHT22;18267;52.234;7.444;2023-05-10T02:11:39;14.50;99.90
31661;DHT22;18267;52.234;7.444;2023-05-10T02:14:09;14.40;99.90
31661;DHT22;18267;52.234;7.444;2023-05-10T02:16:35;14.50;99.90
31661;DHT22;18267;52.234;7.444;2023-05-10T02:19:02;14.70;99.90
31661;DHT22;18267;52.234;7.444;2023-05-10T02:21:28;14.70;99.90
31661;DHT22;18267;52.234;7.444;2023-05-10T02:23:55;14.80;99.90
31661;DHT22;18267;52.234;7.444;2023-05-10T02:26:23;14.90;99.90
31661;DHT22;18267;52.234;7.444;2023-05-10T02:28:51;15.00;99.90
31661;DHT22;18267;52.234;7.444;2023-05-10T02:31:17;15.00;99.90
31661;DHT22;18267;52.234;7.444;2023-05-10T02:33:43;15.10;99.90
31661;DHT22;18267;52.234;7.444;2023-05-10T02:36:11;15.10;99.90
31661;DHT22;18267;52.234;7.444;2023-05-10T02:38:38;15.00;99.90
31661;DHT22;18267;52.234;7.444;2023-05-10T02:41:05;15.00;99.90
31661;DHT22;18267;52.234;7.444;2023-05-10T02:43:33;14.90;99.90
31661;DHT22;18267;52.234;7.444;2023-05-10T02:46:00;15.00;99.90
31661;DHT22;18267;52.234;7.444;2023-05-10T02:48:26;15.10;99.90
31661;DHT22;18267;52.234;7.444;2023-05-10T02:50:53;15.20;99.90
31661;DHT22;18267;52.234;7.444;2023-05-10T02:53:22;15.20;99.90
31661;DHT22;18267;52.234;7.444;2023-05-10T02:55:50;15.20;99.90
31661;DHT22;18267;52.234;7.444;2023-05-10T02:58:16;15.20;99.90
31661;DHT22;18267;52.234;7.444;2023-05-10T03:00:44;15.10;99.90
31661;DHT22;18267;52.234;7.444;2023-05-10T03:03:10;15.10;99.90
31661;DHT22;18267;52.234;7.444;2023-05-10T03:05:36;15.20;99.90
31661;DHT22;18267;52.234;7.444;2023-05-10T03:08:01;15.20;99.90
31661;DHT22;18267;52.234;7.444;2023-05-10T03:10:30;15.30;99.90
31661;DHT22;18267;52.234;7.444;2023-05-10T03:13:13;15.20;99.90
31661;DHT22;18267;52.234;7.444;2023-05-10T03:16:08;15.10;99.90
31661;DHT22;18267;52.234;7.444;2023-05-10T03:21:31;15.10;99.90
31661;DHT22;18267;52.234;7.444;2023-05-10T03:24:08;15.10;99.90
31661;DHT22;18267;52.234;7.444;2023-05-10T03:26:34;15.10;99.90
31661;DHT22;18267;52.234;7.444;2023-05-10T03:29:02;15.10;99.90
31661;DHT22;18267;52.234;7.444;2023-05-10T03:31:28;15.10;99.90
31661;DHT22;18267;52.234;7.444;2023-05-10T03:33:53;15.00;99.90
31661;DHT22;18267;52.234;7.444;2023-05-10T03:36:19;15.00;99.90
31661;DHT22;18267;52.234;7.444;2023-05-10T03:38:45;15.00;99.90
31661;DHT22;18267;52.234;7.444;2023-05-10T03:41:11;15.00;99.90
31661;DHT22;18267;52.234;7.444;2023-05-10T03:43:36;15.00;99.90
31661;DHT22;18267;52.234;7.444;2023-05-10T03:46:03;15.00;99.90
31661;DHT22;18267;52.234;7.444;2023-05-10T03:48:29;14.90;99.90
31661;DHT22;18267;52.234;7.444;2023-05-10T03:50:55;15.00;99.90
31661;DHT22;18267;52.234;7.444;2023-05-10T03:53:20;15.00;99.90
31661;DHT22;18267;52.234;7.444;2023-05-10T03:55:46;14.90;99.90
31661;DHT22;18267;52.234;7.444;2023-05-10T03:58:12;15.00;99.90
31661;DHT22;18267;52.234;7.444;2023-05-10T04:00:37;15.20;99.90
31661;DHT22;18267;52.234;7.444;2023-05-10T04:03:11;15.10;99.90
31661;DHT22;18267;52.234;7.444;2023-05-10T04:05:37;15.00;99.90
31661;DHT22;18267;52.234;7.444;2023-05-10T04:08:03;15.10;99.90
31661;DHT22;18267;52.234;7.444;2023-05-10T04:10:29;15.00;99.90
31661;DHT22;18267;52.234;7.444;2023-05-10T04:12:55;15.00;99.90
31661;DHT22;18267;52.234;7.444;2023-05-10T04:15:20;15.00;99.90
31661;DHT22;18267;52.234;7.444;2023-05-10T04:17:46;15.10;99.90
31661;DHT22;18267;52.234;7.444;2023-05-10T04:20:12;15.10;99.90
31661;DHT22;18267;52.234;7.444;2023-05-10T04:22:38;15.10;99.90
31661;DHT22;18267;52.234;7.444;2023-05-10T04:25:04;15.10;99.90
31661;DHT22;18267;52.234;7.444;2023-05-10T04:27:30;15.20;99.90
31661;DHT22;18267;52.234;7.444;2023-05-10T04:29:56;15.20;99.90
31661;DHT22;18267;52.234;7.444;2023-05-10T04:32:21;15.20;99.90
31661;DHT22;18267;52.234;7.444;2023-05-10T04:34:47;15.20;99.90
31661;DHT22;18267;52.234;7.444;2023-05-10T04:37:13;15.20;99.90
31661;DHT22;18267;52.234;7.444;2023-05-10T04:39:38;15.20;99.90
31661;DHT22;18267;52.234;7.444;2023-05-10T04:42:04;15.20;99.90
31661;DHT22;18267;52.234;7.444;2023-05-10T04:44:34;15.20;99.90
31661;DHT22;18267;52.234;7.444;2023-05-10T04:46:59;15.20;99.90
31661;DHT22;18267;52.234;7.444;2023-05-10T04:49:25;15.20;99.90
31661;DHT22;18267;52.234;7.444;2023-05-10T04:51:50;15.20;99.90
31661;DHT22;18267;52.234;7.444;2023-05-10T04:54:16;15.30;99.90
31661;DHT22;18267;52.234;7.444;2023-05-10T04:56:41;15.30;99.90
31661;DHT22;18267;52.234;7.444;2023-05-10T04:59:07;15.20;99.90
31661;DHT22;18267;52.234;7.444;2023-05-10T05:01:32;15.30;99.90
31661;DHT22;18267;52.234;7.444;2023-05-10T05:03:58;15.30;99.90
31661;DHT22;18267;52.234;7.444;2023-05-10T05:06:24;15.30;99.90
31661;DHT22;18267;52.234;7.444;2023-05-10T05:08:50;15.40;99.90
31661;DHT22;18267;52.234;7.444;2023-05-10T05:11:16;15.50;99.90
31661;DHT22;18267;52.234;7.444;2023-05-10T05:13:41;15.40;99.90
31661;DHT22;18267;52.234;7.444;2023-05-10T05:16:07;15.40;99.90
31661;DHT22;18267;52.234;7.444;2023-05-10T05:18:32;15.30;99.90
31661;DHT22;18267;52.234;7.444;2023-05-10T05:20:59;15.20;99.90
31661;DHT22;18267;52.234;7.444;2023-05-10T05:23:24;15.30;99.90
31661;DHT22;18267;52.234;7.444;2023-05-10T05:25:54;15.30;99.90
31661;DHT22;18267;52.234;7.444;2023-05-10T05:28:20;15.40;99.90
31661;DHT22;18267;52.234;7.444;2023-05-10T05:30:46;15.50;99.90
31661;DHT22;18267;52.234;7.444;2023-05-10T05:33:13;15.60;99.90
31661;DHT22;18267;52.234;7.444;2023-05-10T05:35:41;15.60;99.90
31661;DHT22;18267;52.234;7.444;2023-05-10T05:38:09;15.60;99.90
31661;DHT22;18267;52.234;7.444;2023-05-10T05:40:35;15.60;99.90
31661;DHT22;18267;52.234;7.444;2023-05-10T05:43:00;15.60;99.90
31661;DHT22;18267;52.234;7.444;2023-05-10T05:45:26;15.70;99.90
31661;DHT22;18267;52.234;7.444;2023-05-10T05:47:51;15.60;99.90
31661;DHT22;18267;52.234;7.444;2023-05-10T05:50:17;15.80;99.90
31661;DHT22;18267;52.234;7.444;2023-05-10T05:52:43;15.80;99.90
31661;DHT22;18267;52.234;7.444;2023-05-10T05:55:08;15.90;99.90
31661;DHT22;18267;52.234;7.444;2023-05-10T05:57:34;16.00;99.90
31661;DHT22;18267;52.234;7.444;2023-05-10T05:59:59;16.10;99.90
31661;DHT22;18267;52.234;7.444;2023-05-10T06:02:25;16.20;99.90
31661;DHT22;18267;52.234;7.444;2023-05-10T06:04:50;16.10;99.90
31661;DHT22;18267;52.234;7.444;2023-05-10T06:07:16;16.00;99.90
31661;DHT22;18267;52.234;7.444;2023-05-10T06:09:41;15.80;99.90
31661;DHT22;18267;52.234;7.444;2023-05-10T06:12:07;15.90;99.90
31661;DHT22;18267;52.234;7.444;2023-05-10T06:14:32;16.00;99.90
31661;DHT22;18267;52.234;7.444;2023-05-10T06:16:58;16.10;99.90
31661;DHT22;18267;52.234;7.444;2023-05-10T06:19:25;16.20;99.90
31661;DHT22;18267;52.234;7.444;2023-05-10T06:21:51;16.20;99.90
31661;DHT22;18267;52.234;7.444;2023-05-10T06:24:17;16.00;99.90
31661;DHT22;18267;52.234;7.444;2023-05-10T06:26:42;16.00;99.90
31661;DHT22;18267;52.234;7.444;2023-05-10T06:29:08;16.00;99.90
31661;DHT22;18267;52.234;7.444;2023-05-10T06:31:33;16.00;99.90
31661;DHT22;18267;52.234;7.444;2023-05-10T06:33:59;16.10;99.90
31661;DHT22;18267;52.234;7.444;2023-05-10T06:36:24;16.10;99.90
31661;DHT22;18267;52.234;7.444;2023-05-10T06:38:51;16.20;99.90
31661;DHT22;18267;52.234;7.444;2023-05-10T06:41:17;16.20;99.90
31661;DHT22;18267;52.234;7.444;2023-05-10T06:43:42;16.30;99.90
31661;DHT22;18267;52.234;7.444;2023-05-10T06:46:08;16.20;99.90
31661;DHT22;18267;52.234;7.444;2023-05-10T06:48:34;16.30;99.90
31661;DHT22;18267;52.234;7.444;2023-05-10T06:51:00;16.30;99.90
31661;DHT22;18267;52.234;7.444;2023-05-10T06:53:25;16.30;99.90
31661;DHT22;18267;52.234;7.444;2023-05-10T06:55:51;16.30;99.90
31661;DHT22;18267;52.234;7.444;2023-05-10T06:58:16;16.30;99.90
31661;DHT22;18267;52.234;7.444;2023-05-10T07:00:43;16.40;99.90
31661;DHT22;18267;52.234;7.444;2023-05-10T07:03:10;16.20;99.90
31661;DHT22;18267;52.234;7.444;2023-05-10T07:05:36;16.10;99.90
31661;DHT22;18267;52.234;7.444;2023-05-10T07:08:01;16.20;99.90
31661;DHT22;18267;52.234;7.444;2023-05-10T07:10:27;16.20;99.90
31661;DHT22;18267;52.234;7.444;2023-05-10T07:12:53;16.30;99.90
31661;DHT22;18267;52.234;7.444;2023-05-10T07:15:18;16.30;99.90
31661;DHT22;18267;52.234;7.444;2023-05-10T07:17:44;16.40;99.90
31661;DHT22;18267;52.234;7.444;2023-05-10T07:20:10;16.50;99.90
31661;DHT22;18267;52.234;7.444;2023-05-10T07:22:36;16.50;99.90
31661;DHT22;18267;52.234;7.444;2023-05-10T07:25:02;16.40;99.90
31661;DHT22;18267;52.234;7.444;2023-05-10T07:27:27;16.30;99.90
31661;DHT22;18267;52.234;7.444;2023-05-10T07:29:53;16.50;99.90
31661;DHT22;18267;52.234;7.444;2023-05-10T07:32:20;16.50;99.90
31661;DHT22;18267;52.234;7.444;2023-05-10T07:34:45;16.70;99.90
31661;DHT22;18267;52.234;7.444;2023-05-10T07:37:11;16.80;99.90
31661;DHT22;18267;52.234;7.444;2023-05-10T07:39:36;16.90;99.90
31661;DHT22;18267;52.234;7.444;2023-05-10T07:42:02;17.00;99.90
31661;DHT22;18267;52.234;7.444;2023-05-10T07:44:28;17.10;99.90
31661;DHT22;18267;52.234;7.444;2023-05-10T07:46:53;17.20;99.90
31661;DHT22;18267;52.234;7.444;2023-05-10T07:49:19;17.20;99.90
31661;DHT22;18267;52.234;7.444;2023-05-10T07:51:44;17.20;99.90
31661;DHT22;18267;52.234;7.444;2023-05-10T07:54:10;17.30;99.90
31661;DHT22;18267;52.234;7.444;2023-05-10T07:56:35;17.30;99.90
31661;DHT22;18267;52.234;7.444;2023-05-10T07:59:03;17.30;99.90
31661;DHT22;18267;52.234;7.444;2023-05-10T08:01:33;17.30;99.90
31661;DHT22;18267;52.234;7.444;2023-05-10T08:03:59;17.40;99.90
31661;DHT22;18267;52.234;7.444;2023-05-10T08:06:25;17.50;99.90
31661;DHT22;18267;52.234;7.444;2023-05-10T08:08:53;17.50;99.90
31661;DHT22;18267;52.234;7.444;2023-05-10T08:11:20;17.60;99.90
31661;DHT22;18267;52.234;7.444;2023-05-10T08:13:46;17.50;99.90
31661;DHT22;18267;52.234;7.444;2023-05-10T08:16:11;17.60;99.90
31661;DHT22;18267;52.234;7.444;2023-05-10T08:18:38;17.80;99.90
31661;DHT22;18267;52.234;7.444;2023-05-10T08:21:04;17.90;99.90
31661;DHT22;18267;52.234;7.444;2023-05-10T08:23:29;18.00;99.90
31661;DHT22;18267;52.234;7.444;2023-05-10T08:25:55;18.00;99.90
31661;DHT22;18267;52.234;7.444;2023-05-10T08:28:21;18.00;99.90
31661;DHT22;18267;52.234;7.444;2023-05-10T08:30:46;18.00;99.90
31661;DHT22;18267;52.234;7.444;2023-05-10T08:33:12;18.00;99.90
31661;DHT22;18267;52.234;7.444;2023-05-10T08:35:37;18.00;99.90
31661;DHT22;18267;52.234;7.444;2023-05-10T08:38:03;18.00;99.90
31661;DHT22;18267;52.234;7.444;2023-05-10T08:40:28;18.20;99.90
31661;DHT22;18267;52.234;7.444;2023-05-10T08:43:09;18.30;99.90
31661;DHT22;18267;52.234;7.444;2023-05-10T08:45:40;18.40;99.90
31661;DHT22;18267;52.234;7.444;2023-05-10T08:48:07;18.30;99.90
31661;DHT22;18267;52.234;7.444;2023-05-10T08:50:36;18.20;99.90
31661;DHT22;18267;52.234;7.444;2023-05-10T08:53:04;18.00;99.90
31661;DHT22;18267;52.234;7.444;2023-05-10T08:55:30;17.80;99.90
31661;DHT22;18267;52.234;7.444;2023-05-10T08:57:58;17.60;99.90
31661;DHT22;18267;52.234;7.444;2023-05-10T09:00:23;17.60;99.90
31661;DHT22;18267;52.234;7.444;2023-05-10T09:02:50;17.60;99.90
31661;DHT22;18267;52.234;7.444;2023-05-10T09:05:15;17.70;99.90
31661;DHT22;18267;52.234;7.444;2023-05-10T09:07:43;17.70;99.90
31661;DHT22;18267;52.234;7.444;2023-05-10T09:10:09;17.40;99.90
31661;DHT22;18267;52.234;7.444;2023-05-10T09:12:35;17.30;99.90
31661;DHT22;18267;52.234;7.444;2023-05-10T09:15:01;17.30;99.90
31661;DHT22;18267;52.234;7.444;2023-05-10T09:17:29;17.60;99.90
31661;DHT22;18267;52.234;7.444;2023-05-10T09:20:03;17.80;99.90
31661;DHT22;18267;52.234;7.444;2023-05-10T09:22:30;17.70;99.90
31661;DHT22;18267;52.234;7.444;2023-05-10T09:25:10;18.00;99.90
31661;DHT22;18267;52.234;7.444;2023-05-10T09:30:37;18.40;99.90
31661;DHT22;18267;52.234;7.444;2023-05-10T09:33:06;18.50;99.90
31661;DHT22;18267;52.234;7.444;2023-05-10T09:35:33;18.50;99.90
31661;DHT22;18267;52.234;7.444;2023-05-10T09:38:02;18.60;99.90
31661;DHT22;18267;52.234;7.444;2023-05-10T09:40:29;18.60;99.90
31661;DHT22;18267;52.234;7.444;2023-05-10T09:42:58;18.60;99.90
31661;DHT22;18267;52.234;7.444;2023-05-10T09:45:27;18.70;99.90
31661;DHT22;18267;52.234;7.444;2023-05-10T09:47:53;18.80;99.90
31661;DHT22;18267;52.234;7.444;2023-05-10T09:50:19;18.70;99.90
31661;DHT22;18267;52.234;7.444;2023-05-10T09:55:37;18.80;99.90
31661;DHT22;18267;52.234;7.444;2023-05-10T09:58:04;18.70;99.90
31661;DHT22;18267;52.234;7.444;2023-05-10T10:00:47;18.80;99.90
31661;DHT22;18267;52.234;7.444;2023-05-10T10:03:19;19.00;99.90
31661;DHT22;18267;52.234;7.444;2023-05-10T10:05:47;19.00;99.90
31661;DHT22;18267;52.234;7.444;2023-05-10T10:08:13;19.00;99.90
31661;DHT22;18267;52.234;7.444;2023-05-10T10:10:39;19.00;99.90
31661;DHT22;18267;52.234;7.444;2023-05-10T10:13:06;19.30;99.90
31661;DHT22;18267;52.234;7.444;2023-05-10T10:15:33;19.50;99.90
31661;DHT22;18267;52.234;7.444;2023-05-10T10:17:59;19.50;99.90
31661;DHT22;18267;52.234;7.444;2023-05-10T10:20:26;19.50;99.90
31661;DHT22;18267;52.234;7.444;2023-05-10T10:22:52;19.60;99.90
31661;DHT22;18267;52.234;7.444;2023-05-10T10:25:19;19.40;99.90
31661;DHT22;18267;52.234;7.444;2023-05-10T10:30:40;19.10;99.90
31661;DHT22;18267;52.234;7.444;2023-05-10T10:33:40;19.10;99.90
31661;DHT22;18267;52.234;7.444;2023-05-10T10:36:09;19.30;99.90
31661;DHT22;18267;52.234;7.444;2023-05-10T10:41:37;19.20;99.90
31661;DHT22;18267;52.234;7.444;2023-05-10T10:58:09;18.50;99.90
31661;DHT22;18267;52.234;7.444;2023-05-10T11:03:34;18.80;99.90
31661;DHT22;18267;52.234;7.444;2023-05-10T11:05:59;18.90;99.90
31661;DHT22;18267;52.234;7.444;2023-05-10T11:08:28;19.30;99.90
31661;DHT22;18267;52.234;7.444;2023-05-10T11:13:30;19.40;99.90
31661;DHT22;18267;52.234;7.444;2023-05-10T11:15:56;19.40;99.90
31661;DHT22;18267;52.234;7.444;2023-05-10T11:18:26;19.30;99.90
31661;DHT22;18267;52.234;7.444;2023-05-10T11:21:00;19.20;99.90
31661;DHT22;18267;52.234;7.444;2023-05-10T11:23:32;19.20;99.90
31661;DHT22;18267;52.234;7.444;2023-05-10T11:25:59;19.00;99.90
31661;DHT22;18267;52.234;7.444;2023-05-10T11:28:27;19.20;99.90
31661;DHT22;18267;52.234;7.444;2023-05-10T11:30:54;19.40;99.90
31661;DHT22;18267;52.234;7.444;2023-05-10T11:33:20;19.60;99.90
31661;DHT22;18267;52.234;7.444;2023-05-10T11:35:46;19.80;99.90
31661;DHT22;18267;52.234;7.444;2023-05-10T11:38:12;19.80;99.90
31661;DHT22;18267;52.234;7.444;2023-05-10T11:40:39;19.90;99.90
31661;DHT22;18267;52.234;7.444;2023-05-10T11:43:05;19.70;99.90
31661;DHT22;18267;52.234;7.444;2023-05-10T11:45:34;19.60;99.90
31661;DHT22;18267;52.234;7.444;2023-05-10T11:48:00;19.10;99.90
31661;DHT22;18267;52.234;7.444;2023-05-10T11:50:27;18.80;99.90
31661;DHT22;18267;52.234;7.444;2023-05-10T11:52:56;18.60;99.90
31661;DHT22;18267;52.234;7.444;2023-05-10T11:55:22;18.70;99.90
31661;DHT22;18267;52.234;7.444;2023-05-10T11:57:53;18.80;99.90
31661;DHT22;18267;52.234;7.444;2023-05-10T12:00:19;18.90;99.90
31661;DHT22;18267;52.234;7.444;2023-05-10T12:02:45;18.70;99.90
31661;DHT22;18267;52.234;7.444;2023-05-10T12:05:11;18.50;99.90
31661;DHT22;18267;52.234;7.444;2023-05-10T12:07:36;18.50;99.90
31661;DHT22;18267;52.234;7.444;2023-05-10T12:10:10;18.70;99.90
31661;DHT22;18267;52.234;7.444;2023-05-10T12:12:45;18.90;99.90
31661;DHT22;18267;52.234;7.444;2023-05-10T12:15:21;18.80;99.90
31661;DHT22;18267;52.234;7.444;2023-05-10T12:17:48;18.60;99.90
31661;DHT22;18267;52.234;7.444;2023-05-10T12:20:21;18.60;99.90
31661;DHT22;18267;52.234;7.444;2023-05-10T12:22:50;18.80;99.90
31661;DHT22;18267;52.234;7.444;2023-05-10T12:25:16;18.90;99.90
31661;DHT22;18267;52.234;7.444;2023-05-10T12:27:48;19.00;99.90
31661;DHT22;18267;52.234;7.444;2023-05-10T12:30:25;19.10;99.90
31661;DHT22;18267;52.234;7.444;2023-05-10T12:32:51;19.30;99.90
31661;DHT22;18267;52.234;7.444;2023-05-10T12:35:17;19.40;99.90
31661;DHT22;18267;52.234;7.444;2023-05-10T12:37:47;19.30;99.90
31661;DHT22;18267;52.234;7.444;2023-05-10T12:40:13;19.40;99.90
31661;DHT22;18267;52.234;7.444;2023-05-10T12:42:39;19.60;99.90
31661;DHT22;18267;52.234;7.444;2023-05-10T12:45:05;19.40;99.90
31661;DHT22;18267;52.234;7.444;2023-05-10T12:47:32;19.30;99.90
31661;DHT22;18267;52.234;7.444;2023-05-10T12:49:59;19.20;99.90
31661;DHT22;18267;52.234;7.444;2023-05-10T12:52:25;19.10;99.90
31661;DHT22;18267;52.234;7.444;2023-05-10T12:54:51;19.00;99.90
31661;DHT22;18267;52.234;7.444;2023-05-10T12:57:20;19.00;99.90
31661;DHT22;18267;52.234;7.444;2023-05-10T12:59:47;18.90;99.90
31661;DHT22;18267;52.234;7.444;2023-05-10T13:02:12;18.80;99.90
31661;DHT22;18267;52.234;7.444;2023-05-10T13:04:38;18.90;99.90
31661;DHT22;18267;52.234;7.444;2023-05-10T13:07:08;18.80;99.90
31661;DHT22;18267;52.234;7.444;2023-05-10T13:09:34;18.80;99.90
31661;DHT22;18267;52.234;7.444;2023-05-10T13:12:00;18.90;99.90
31661;DHT22;18267;52.234;7.444;2023-05-10T13:14:26;19.10;99.90
31661;DHT22;18267;52.234;7.444;2023-05-10T13:16:51;19.40;99.90
31661;DHT22;18267;52.234;7.444;2023-05-10T13:19:17;19.70;99.90
31661;DHT22;18267;52.234;7.444;2023-05-10T13:21:43;19.80;99.90
31661;DHT22;18267;52.234;7.444;2023-05-10T13:24:12;20.00;99.90
31661;DHT22;18267;52.234;7.444;2023-05-10T13:26:39;20.10;99.90
31661;DHT22;18267;52.234;7.444;2023-05-10T13:29:06;19.70;99.90
31661;DHT22;18267;52.234;7.444;2023-05-10T13:31:32;19.80;99.90
31661;DHT22;18267;52.234;7.444;2023-05-10T13:33:57;19.70;99.90
31661;DHT22;18267;52.234;7.444;2023-05-10T13:36:23;19.70;99.90
31661;DHT22;18267;52.234;7.444;2023-05-10T13:38:49;19.40;99.90
31661;DHT22;18267;52.234;7.444;2023-05-10T13:41:15;19.20;99.90
31661;DHT22;18267;52.234;7.444;2023-05-10T13:43:41;19.10;99.90
31661;DHT22;18267;52.234;7.444;2023-05-10T13:46:06;19.00;99.90
31661;DHT22;18267;52.234;7.444;2023-05-10T13:48:32;18.80;99.90
31661;DHT22;18267;52.234;7.444;2023-05-10T13:50:57;18.70;99.90
31661;DHT22;18267;52.234;7.444;2023-05-10T13:53:23;18.70;99.90
31661;DHT22;18267;52.234;7.444;2023-05-10T13:55:49;18.50;99.90
31661;DHT22;18267;52.234;7.444;2023-05-10T13:58:14;18.40;99.90
31661;DHT22;18267;52.234;7.444;2023-05-10T14:00:40;18.50;99.90
31661;DHT22;18267;52.234;7.444;2023-05-10T14:03:06;18.60;99.90
31661;DHT22;18267;52.234;7.444;2023-05-10T14:05:32;18.40;99.90
31661;DHT22;18267;52.234;7.444;2023-05-10T14:07:57;18.10;99.90
31661;DHT22;18267;52.234;7.444;2023-05-10T14:10:23;18.00;99.90
31661;DHT22;18267;52.234;7.444;2023-05-10T14:12:49;18.00;99.90
31661;DHT22;18267;52.234;7.444;2023-05-10T14:15:15;18.00;99.90
31661;DHT22;18267;52.234;7.444;2023-05-10T14:17:41;17.90;99.90
31661;DHT22;18267;52.234;7.444;2023-05-10T14:20:07;18.10;99.90
31661;DHT22;18267;52.234;7.444;2023-05-10T14:22:32;18.10;99.90
31661;DHT22;18267;52.234;7.444;2023-05-10T14:24:58;18.20;99.90
31661;DHT22;18267;52.234;7.444;2023-05-10T14:27:24;18.40;99.90
31661;DHT22;18267;52.234;7.444;2023-05-10T14:29:49;18.20;99.90
31661;DHT22;18267;52.234;7.444;2023-05-10T14:32:15;18.10;99.90
31661;DHT22;18267;52.234;7.444;2023-05-10T14:34:41;18.00;99.90
31661;DHT22;18267;52.234;7.444;2023-05-10T14:37:06;18.10;99.90
31661;DHT22;18267;52.234;7.444;2023-05-10T14:39:32;17.90;99.90
31661;DHT22;18267;52.234;7.444;2023-05-10T14:41:58;17.80;99.90
31661;DHT22;18267;52.234;7.444;2023-05-10T14:44:24;17.70;99.90
31661;DHT22;18267;52.234;7.444;2023-05-10T14:46:49;17.80;99.90
31661;DHT22;18267;52.234;7.444;2023-05-10T14:49:15;17.70;99.90
31661;DHT22;18267;52.234;7.444;2023-05-10T14:51:40;17.80;99.90
31661;DHT22;18267;52.234;7.444;2023-05-10T14:54:06;17.70;99.90
31661;DHT22;18267;52.234;7.444;2023-05-10T14:56:32;17.60;99.90
31661;DHT22;18267;52.234;7.444;2023-05-10T14:58:57;17.60;99.90
31661;DHT22;18267;52.234;7.444;2023-05-10T15:01:23;17.60;99.90
31661;DHT22;18267;52.234;7.444;2023-05-10T15:03:49;17.60;99.90
31661;DHT22;18267;52.234;7.444;2023-05-10T15:06:15;17.70;99.90
31661;DHT22;18267;52.234;7.444;2023-05-10T15:08:41;17.90;99.90
31661;DHT22;18267;52.234;7.444;2023-05-10T15:11:07;18.10;99.90
31661;DHT22;18267;52.234;7.444;2023-05-10T15:13:32;18.10;99.90
31661;DHT22;18267;52.234;7.444;2023-05-10T15:15:58;18.10;99.90
31661;DHT22;18267;52.234;7.444;2023-05-10T15:18:24;18.00;99.90
31661;DHT22;18267;52.234;7.444;2023-05-10T15:20:49;17.90;99.90
31661;DHT22;18267;52.234;7.444;2023-05-10T15:23:15;17.80;99.90
31661;DHT22;18267;52.234;7.444;2023-05-10T15:25:40;17.90;99.90
31661;DHT22;18267;52.234;7.444;2023-05-10T15:28:06;18.00;99.90
31661;DHT22;18267;52.234;7.444;2023-05-10T15:30:32;18.10;99.90
31661;DHT22;18267;52.234;7.444;2023-05-10T15:32:58;17.90;99.90
31661;DHT22;18267;52.234;7.444;2023-05-10T15:35:23;18.00;99.90
31661;DHT22;18267;52.234;7.444;2023-05-10T15:37:49;17.80;99.90
31661;DHT22;18267;52.234;7.444;2023-05-10T15:40:15;17.80;99.90
31661;DHT22;18267;52.234;7.444;2023-05-10T15:42:40;17.80;99.90
31661;DHT22;18267;52.234;7.444;2023-05-10T15:45:06;17.90;99.90
31661;DHT22;18267;52.234;7.444;2023-05-10T15:47:32;18.10;99.90
31661;DHT22;18267;52.234;7.444;2023-05-10T15:49:58;18.10;99.90
31661;DHT22;18267;52.234;7.444;2023-05-10T15:52:24;18.40;99.90
31661;DHT22;18267;52.234;7.444;2023-05-10T15:54:49;18.60;99.90
31661;DHT22;18267;52.234;7.444;2023-05-10T15:57:15;18.70;99.90
31661;DHT22;18267;52.234;7.444;2023-05-10T15:59:41;18.80;99.90
31661;DHT22;18267;52.234;7.444;2023-05-10T16:02:08;18.80;99.90
31661;DHT22;18267;52.234;7.444;2023-05-10T16:04:35;18.70;99.90
31661;DHT22;18267;52.234;7.444;2023-05-10T16:07:01;18.70;99.90
31661;DHT22;18267;52.234;7.444;2023-05-10T16:09:27;18.80;99.90
31661;DHT22;18267;52.234;7.444;2023-05-10T16:11:52;18.70;99.90
31661;DHT22;18267;52.234;7.444;2023-05-10T16:14:18;18.40;99.90